Time;durP1;ratioP1;P1;durP2;ratioP2;P2;SDS_P1;SDS_P2;PMS_P1;PMS_P2;Temp;Humidity;BMP_temperature;BMP_pressure;BME280_temperature;BME280_humidity;BME280_pressure;Samples;Min_cycle;Max_cycle;Signal;HPM_P1;HPM_P2
2023/09/25 00:01:48;;;;;;;5.35;2.78;;;;;;;13.60;100.00;102056.16;5056468;28;20052;-66
2023/09/25 00:04:13;;;;;;;4.18;2.72;;;;;;;13.60;100.00;102054.41;5065756;28;20020;-65
2023/09/25 00:06:38;;;;;;;3.95;2.78;;;;;;;13.59;100.00;102057.97;5064864;28;20035;-66
2023/09/25 00:09:05;;;;;;;8.35;3.40;;;;;;;13.56;100.00;102059.81;5066143;28;20047;-65
2023/09/25 00:11:31;;;;;;;5.57;2.92;;;;;;;13.45;100.00;102060.09;5065644;28;20056;-66
2023/09/25 00:13:57;;;;;;;5.65;2.70;;;;;;;13.46;100.00;102059.19;5066827;28;20029;-66
2023/09/25 00:16:22;;;;;;;3.67;2.72;;;;;;;13.43;100.00;102067.19;5065559;28;20055;-64
2023/09/25 00:18:47;;;;;;;8.20;2.80;;;;;;;13.38;100.00;102072.59;5065671;28;20115;-68
2023/09/25 00:21:13;;;;;;;4.95;2.67;;;;;;;13.34;100.00;102068.31;5066356;28;20503;-67
2023/09/25 00:23:38;;;;;;;5.60;2.75;;;;;;;13.31;100.00;102069.25;5068870;28;20089;-66
2023/09/25 00:26:08;;;;;;;4.22;3.28;;;;;;;13.29;100.00;102065.78;5069183;28;20515;-65
2023/09/25 00:28:33;;;;;;;6.45;3.20;;;;;;;13.33;100.00;102067.44;5068481;28;20419;-66
2023/09/25 00:30:59;;;;;;;3.95;2.78;;;;;;;13.31;100.00;102061.31;5069480;28;20036;-66
2023/09/25 00:33:24;;;;;;;4.95;3.15;;;;;;;13.24;100.00;102067.66;5067326;28;20035;-66
2023/09/25 00:35:50;;;;;;;4.20;3.08;;;;;;;13.21;100.00;102067.72;5069422;28;20103;-65
2023/09/25 00:38:15;;;;;;;4.57;3.10;;;;;;;13.19;100.00;102061.63;5057368;28;20033;-66
2023/09/25 00:40:40;;;;;;;4.97;3.28;;;;;;;13.13;100.00;102055.56;5049663;28;20028;-65
2023/09/25 00:43:06;;;;;;;6.25;3.10;;;;;;;13.13;100.00;102057.38;5068342;28;20103;-67
2023/09/25 00:45:38;;;;;;;5.40;2.70;;;;;;;13.10;100.00;102055.63;5068511;28;20039;-66
2023/09/25 00:48:04;;;;;;;4.28;2.65;;;;;;;13.08;100.00;102054.81;5067669;28;20105;-66
2023/09/25 00:50:31;;;;;;;4.72;2.90;;;;;;;13.10;100.00;102046.84;5067707;28;20070;-67
2023/09/25 00:53:01;;;;;;;3.45;2.75;;;;;;;13.16;100.00;102046.72;5068311;28;20028;-66
2023/09/25 00:55:27;;;;;;;4.78;2.83;;;;;;;13.19;100.00;102043.97;5069584;28;20066;-66
2023/09/25 00:57:52;;;;;;;8.00;3.25;;;;;;;13.17;100.00;102047.56;5067085;28;20071;-67
2023/09/25 01:00:18;;;;;;;3.72;2.65;;;;;;;13.21;100.00;102051.84;5065626;28;20028;-65
2023/09/25 01:02:43;;;;;;;2.97;2.50;;;;;;;13.26;100.00;102044.69;5068068;28;20039;-65
2023/09/25 01:05:09;;;;;;;4.15;2.60;;;;;;;13.29;100.00;102039.31;5069106;28;20058;-67
2023/09/25 01:07:36;;;;;;;4.50;2.90;;;;;;;13.30;100.00;102042.84;5068987;28;20036;-66
2023/09/25 01:10:16;;;;;;;4.63;3.08;;;;;;;13.27;100.00;102039.34;5127155;22;20384;-66
2023/09/25 01:12:42;;;;;;;5.40;3.10;;;;;;;13.29;100.00;102041.94;5047922;28;20032;-67
2023/09/25 01:15:08;;;;;;;4.28;2.40;;;;;;;13.25;100.00;102043.78;5048317;28;20116;-66
2023/09/25 01:17:34;;;;;;;3.45;2.75;;;;;;;13.27;100.00;102046.41;5048189;28;20116;-65
2023/09/25 01:20:13;;;;;;;4.97;2.70;;;;;;;13.19;100.00;102049.28;5048532;28;20818;-66
2023/09/25 01:22:43;;;;;;;3.83;2.50;;;;;;;13.20;100.00;102044.84;5048811;28;20032;-63
2023/09/25 01:25:12;;;;;;;4.55;2.40;;;;;;;13.21;100.00;102052.72;5030653;28;20048;-65
2023/09/25 01:27:38;;;;;;;4.47;2.77;;;;;;;13.27;100.00;102046.41;5047914;28;20025;-66
2023/09/25 01:30:04;;;;;;;4.80;2.70;;;;;;;13.27;100.00;102041.09;5029301;28;20482;-66
2023/09/25 01:32:30;;;;;;;7.40;2.80;;;;;;;13.28;100.00;102042.88;5047534;28;20429;-66
2023/09/25 01:34:55;;;;;;;3.45;2.70;;;;;;;13.26;100.00;102039.38;5050356;28;20082;-65
2023/09/25 01:37:21;;;;;;;3.55;2.40;;;;;;;13.22;100.00;102038.59;5050578;28;20071;-67
2023/09/25 01:39:46;;;;;;;5.90;2.70;;;;;;;13.22;100.00;102032.44;5066957;28;20027;-66
2023/09/25 01:42:11;;;;;;;7.53;2.72;;;;;;;13.18;100.00;102033.44;5069219;28;20060;-64
2023/09/25 01:44:37;;;;;;;4.90;2.30;;;;;;;13.20;100.00;102031.59;5067535;28;20056;-66
2023/09/25 01:47:02;;;;;;;2.95;2.20;;;;;;;13.18;100.00;102028.13;5047546;28;20087;-66
2023/09/25 01:49:30;;;;;;;4.95;2.83;;;;;;;13.12;100.00;102029.13;5048329;28;20083;-67
2023/09/25 01:51:55;;;;;;;5.95;2.63;;;;;;;13.13;100.00;102029.09;5047717;28;20025;-66
2023/09/25 01:54:20;;;;;;;4.20;2.40;;;;;;;13.09;100.00;102027.44;5048278;28;20370;-66
2023/09/25 01:56:46;;;;;;;4.50;2.42;;;;;;;13.05;100.00;102030.22;5047631;28;20419;-66
2023/09/25 01:59:11;;;;;;;8.05;2.72;;;;;;;13.06;100.00;102038.09;5048068;28;20637;-68
2023/09/25 02:01:37;;;;;;;4.68;2.50;;;;;;;13.05;100.00;102030.22;5046549;28;20029;-66
2023/09/25 02:04:02;;;;;;;7.75;2.75;;;;;;;13.02;100.00;102033.81;5048625;28;20086;-67
2023/09/25 02:06:27;;;;;;;7.93;3.10;;;;;;;13.01;100.00;102022.34;5046511;28;20052;-64
2023/09/25 02:08:53;;;;;;;4.28;2.45;;;;;;;13.01;100.00;102025.00;5048042;28;20123;-66
2023/09/25 02:11:18;;;;;;;5.32;2.40;;;;;;;12.99;100.00;102021.53;5047687;28;20136;-67
2023/09/25 02:13:43;;;;;;;4.05;2.88;;;;;;;12.96;100.00;102021.59;5049042;28;20036;-66
2023/09/25 02:16:09;;;;;;;4.20;2.63;;;;;;;12.89;100.00;102015.59;5047848;28;20025;-68
2023/09/25 02:18:35;;;;;;;4.03;2.50;;;;;;;12.92;100.00;102008.50;5046886;28;20051;-65
2023/09/25 02:21:00;;;;;;;2.83;2.20;;;;;;;12.92;100.00;102009.38;5067495;28;20040;-66
2023/09/25 02:23:25;;;;;;;4.45;2.45;;;;;;;12.91;100.00;102004.13;5052417;28;20055;-64
2023/09/25 02:25:51;;;;;;;3.55;2.17;;;;;;;12.87;100.00;101996.25;5047784;28;20037;-66
2023/09/25 02:28:16;;;;;;;3.28;2.78;;;;;;;12.90;100.00;101995.31;5045825;28;20021;-63
2023/09/25 02:30:41;;;;;;;4.93;2.70;;;;;;;12.85;100.00;101982.19;5047996;28;20465;-67
2023/09/25 02:33:07;;;;;;;3.25;2.78;;;;;;;12.84;100.00;101990.16;5046636;28;20064;-67
2023/09/25 02:35:32;;;;;;;3.67;2.38;;;;;;;12.85;100.00;101986.59;5048283;28;20107;-67
2023/09/25 02:37:58;;;;;;;4.45;2.50;;;;;;;12.85;100.00;101990.13;5049127;28;20043;-66
2023/09/25 02:40:24;;;;;;;5.15;2.63;;;;;;;12.89;100.00;101998.88;5067816;28;20024;-64
2023/09/25 02:42:49;;;;;;;6.53;2.72;;;;;;;12.86;100.00;101997.16;5066171;28;20024;-65
2023/09/25 02:45:15;;;;;;;2.92;2.33;;;;;;;12.85;100.00;101995.41;5049223;28;20032;-65
2023/09/25 02:47:40;;;;;;;7.18;2.92;;;;;;;12.85;100.00;101998.06;5065972;28;20016;-67
2023/09/25 02:50:06;;;;;;;5.70;2.92;;;;;;;12.82;100.00;101992.84;5066866;28;20032;-68
2023/09/25 02:52:31;;;;;;;3.70;2.38;;;;;;;12.81;100.00;101993.75;5044659;28;20526;-67
2023/09/25 02:54:57;;;;;;;5.65;2.53;;;;;;;12.76;100.00;102004.44;5047127;28;20029;-65
2023/09/25 02:57:22;;;;;;;4.72;2.53;;;;;;;12.79;100.00;101992.91;5046709;28;20068;-66
2023/09/25 02:59:49;;;;;;;5.40;2.40;;;;;;;12.81;100.00;101991.13;5047428;28;20025;-68
2023/09/25 03:02:14;;;;;;;6.00;2.42;;;;;;;12.80;100.00;101981.47;5046354;28;20114;-66
2023/09/25 03:04:39;;;;;;;6.05;2.67;;;;;;;12.84;100.00;101985.75;5047726;28;20474;-66
2023/09/25 03:07:05;;;;;;;4.97;2.53;;;;;;;12.82;100.00;101986.72;5029490;28;20498;-66
2023/09/25 03:09:30;;;;;;;4.22;2.70;;;;;;;12.76;100.00;101982.41;5048111;28;20021;-68
2023/09/25 03:11:55;;;;;;;4.43;2.33;;;;;;;12.74;100.00;101994.81;5047154;28;20027;-67
2023/09/25 03:14:20;;;;;;;5.43;2.17;;;;;;;12.79;100.00;101997.34;5046966;28;20095;-67
2023/09/25 03:16:46;;;;;;;4.18;2.42;;;;;;;12.81;100.00;102001.69;5046556;28;20079;-68
2023/09/25 03:19:12;;;;;;;5.75;2.88;;;;;;;12.77;100.00;101990.31;5047067;28;20025;-66
2023/09/25 03:21:40;;;;;;;3.80;2.53;;;;;;;12.77;100.00;101989.47;5029247;28;20032;-66
2023/09/25 03:24:06;;;;;;;2.95;2.65;;;;;;;12.73;100.00;101995.72;5046272;28;20546;-66
2023/09/25 03:26:31;;;;;;;5.70;3.10;;;;;;;12.78;100.00;101996.47;5046839;28;20144;-67
2023/09/25 03:28:56;;;;;;;3.95;2.80;;;;;;;12.79;100.00;101997.34;5046109;28;20082;-67
2023/09/25 03:31:22;;;;;;;4.03;2.83;;;;;;;12.76;100.00;101990.34;5048132;28;20111;-68
2023/09/25 03:33:47;;;;;;;3.63;2.53;;;;;;;12.70;100.00;101988.72;5028497;28;20332;-67
2023/09/25 03:36:13;;;;;;;4.78;2.58;;;;;;;12.62;100.00;101986.25;5059381;28;20378;-67
2023/09/25 03:38:38;;;;;;;5.53;2.42;;;;;;;12.60;100.00;101987.22;5067142;28;20013;-66
2023/09/25 03:41:04;;;;;;;8.20;2.90;;;;;;;12.62;100.00;101996.00;5055607;28;20115;-67
2023/09/25 03:43:29;;;;;;;4.65;2.88;;;;;;;12.67;100.00;101991.44;5028629;28;20659;-66
2023/09/25 03:45:55;;;;;;;4.20;2.70;;;;;;;12.67;100.00;101996.72;5011375;28;20031;-68
2023/09/25 03:48:20;;;;;;;5.25;2.97;;;;;;;12.61;100.00;101999.53;5046444;28;20040;-67
2023/09/25 03:50:46;;;;;;;4.13;2.72;;;;;;;12.61;100.00;101994.22;5046163;28;20060;-65
2023/09/25 03:53:11;;;;;;;7.85;2.72;;;;;;;12.63;100.00;101998.59;5047339;28;20519;-65
2023/09/25 03:55:38;;;;;;;3.35;2.70;;;;;;;12.64;100.00;102002.09;5046552;28;20067;-68
2023/09/25 03:58:03;;;;;;;3.67;2.90;;;;;;;12.61;100.00;102004.81;5028027;28;20056;-66
2023/09/25 04:00:29;;;;;;;4.35;2.85;;;;;;;12.62;100.00;102004.78;5046463;28;20029;-69
2023/09/25 04:02:54;;;;;;;4.35;2.90;;;;;;;12.63;100.00;102003.88;5028478;28;20116;-68
2023/09/25 04:05:19;;;;;;;4.47;2.83;;;;;;;12.68;100.00;102008.19;5055407;28;20044;-67
2023/09/25 04:07:45;;;;;;;4.82;2.75;;;;;;;12.67;100.00;102014.41;5066727;28;20025;-69
2023/09/25 04:10:11;;;;;;;5.10;2.85;;;;;;;12.62;100.00;102018.00;5056314;28;20041;-66
2023/09/25 04:12:36;;;;;;;5.18;2.72;;;;;;;12.67;100.00;102011.75;5047108;28;20029;-67
2023/09/25 04:15:05;;;;;;;5.60;3.03;;;;;;;12.66;100.00;102017.94;5054616;28;20027;-66
2023/09/25 04:17:33;;;;;;;7.13;2.75;;;;;;;12.67;100.00;102011.75;5066010;28;20132;-67
2023/09/25 04:19:58;;;;;;;5.97;2.67;;;;;;;12.68;100.00;102016.13;5066343;28;20088;-67
2023/09/25 04:22:24;;;;;;;2.67;2.47;;;;;;;12.69;100.00;102021.38;5067050;28;20115;-68
2023/09/25 04:24:49;;;;;;;5.05;2.30;;;;;;;12.72;100.00;102028.34;5066317;28;20116;-66
2023/09/25 04:27:15;;;;;;;4.55;2.80;;;;;;;12.78;100.00;102022.94;5066922;28;20112;-66
2023/09/25 04:29:41;;;;;;;5.97;2.25;;;;;;;12.71;100.00;102027.50;5064774;28;20032;-66
2023/09/25 04:32:07;;;;;;;3.88;2.58;;;;;;;12.73;100.00;102017.75;5028905;28;20074;-67
2023/09/25 04:34:35;;;;;;;2.83;2.35;;;;;;;12.69;100.00;102025.78;5046809;28;20479;-68
2023/09/25 04:37:01;;;;;;;3.75;2.58;;;;;;;12.71;100.00;102032.81;5047543;28;20132;-66
2023/09/25 04:39:27;;;;;;;6.20;2.60;;;;;;;12.64;100.00;102029.41;5046388;28;20018;-66
2023/09/25 04:41:53;;;;;;;4.40;2.33;;;;;;;12.67;100.00;102035.56;5046340;28;20106;-67
2023/09/25 04:44:18;;;;;;;4.65;2.65;;;;;;;12.60;100.00;102034.81;5046751;28;20025;-67
2023/09/25 04:46:44;;;;;;;7.63;2.83;;;;;;;12.63;100.00;102032.97;5061134;28;20431;-68
2023/09/25 04:49:12;;;;;;;4.82;2.80;;;;;;;12.60;100.00;102033.03;5066934;28;20025;-68
2023/09/25 04:51:38;;;;;;;4.10;2.78;;;;;;;12.57;100.00;102034.88;5064983;28;20429;-67
2023/09/25 04:54:05;;;;;;;5.25;2.97;;;;;;;12.57;100.00;102029.59;5065806;28;20024;-66
2023/09/25 04:56:30;;;;;;;6.88;2.75;;;;;;;12.56;100.00;102036.66;5066142;28;20028;-66
2023/09/25 04:58:57;;;;;;;3.80;2.40;;;;;;;12.59;100.00;102033.97;5048379;28;20035;-65
2023/09/25 05:01:23;;;;;;;4.57;3.20;;;;;;;12.61;100.00;102033.91;5065291;28;20090;-66
2023/09/25 05:03:49;;;;;;;6.10;3.10;;;;;;;12.60;100.00;102034.81;5065409;28;20017;-65
2023/09/25 05:06:14;;;;;;;3.70;2.25;;;;;;;12.56;100.00;102039.31;5057430;28;20364;-66
2023/09/25 05:08:39;;;;;;;4.53;2.38;;;;;;;12.57;100.00;102030.47;5029152;28;20028;-67
2023/09/25 05:11:05;;;;;;;4.75;2.33;;;;;;;12.58;100.00;102037.47;5048331;28;20045;-66
2023/09/25 05:13:32;;;;;;;5.13;2.60;;;;;;;12.60;100.00;102035.69;5049363;28;20025;-67
2023/09/25 05:15:57;;;;;;;4.30;2.78;;;;;;;12.60;100.00;102045.38;5047055;28;20546;-67
2023/09/25 05:18:23;;;;;;;3.67;2.60;;;;;;;12.53;100.00;102042.03;5048767;28;20136;-65
2023/09/25 05:20:48;;;;;;;6.32;2.63;;;;;;;12.55;100.00;102039.34;5030466;28;20114;-66
2023/09/25 05:23:13;;;;;;;6.40;2.70;;;;;;;12.55;100.00;102048.13;5049647;28;20044;-66
2023/09/25 05:25:39;;;;;;;5.75;3.15;;;;;;;12.55;100.00;102048.13;5048494;28;20032;-67
2023/09/25 05:28:05;;;;;;;4.10;2.67;;;;;;;12.59;100.00;102048.94;5031529;28;20017;-67
2023/09/25 05:30:30;;;;;;;7.78;3.03;;;;;;;12.57;100.00;102035.75;5048210;28;20044;-66
2023/09/25 05:32:56;;;;;;;4.38;2.97;;;;;;;12.55;100.00;102045.47;5062296;28;20052;-65
2023/09/25 05:35:21;;;;;;;4.93;2.65;;;;;;;12.57;100.00;102050.75;5068334;28;20029;-67
2023/09/25 05:37:48;;;;;;;7.15;3.25;;;;;;;12.53;100.00;102049.97;5054635;28;20459;-69
2023/09/25 05:40:15;;;;;;;5.90;2.40;;;;;;;12.57;100.00;102056.03;5048850;28;20074;-65
2023/09/25 05:42:44;;;;;;;3.78;2.67;;;;;;;12.53;100.00;102049.06;5040804;28;20126;-68
2023/09/25 05:45:11;;;;;;;7.25;3.20;;;;;;;12.53;100.00;102049.97;5068383;28;20467;-66
2023/09/25 05:47:37;;;;;;;4.20;2.60;;;;;;;12.53;100.00;102052.59;5058059;28;20450;-66
2023/09/25 05:50:06;;;;;;;3.97;2.78;;;;;;;12.63;100.00;102054.13;5048066;28;20054;-65
2023/09/25 05:52:32;;;;;;;6.28;2.80;;;;;;;12.71;100.00;102055.72;5060591;28;20037;-65
2023/09/25 05:54:58;;;;;;;7.28;2.75;;;;;;;12.70;100.00;102056.63;5067613;28;20364;-66
2023/09/25 05:57:23;;;;;;;7.10;2.90;;;;;;;12.72;100.00;102070.66;5055105;28;20494;-66
2023/09/25 05:59:49;;;;;;;15.40;5.40;;;;;;;12.75;100.00;102055.63;5047451;28;20449;-67
2023/09/25 06:02:14;;;;;;;17.90;4.93;;;;;;;12.85;100.00;102058.91;5056434;28;20032;-65
2023/09/25 06:04:39;;;;;;;13.30;3.35;;;;;;;12.94;100.00;102059.59;5068489;28;20029;-67
2023/09/25 06:07:05;;;;;;;7.43;2.75;;;;;;;12.99;100.00;102055.06;5059748;28;20025;-68
2023/09/25 06:09:31;;;;;;;6.75;3.03;;;;;;;12.99;100.00;102068.28;5046995;28;20025;-67
2023/09/25 06:11:57;;;;;;;5.60;2.78;;;;;;;13.03;100.00;102059.34;5037283;28;20113;-67
2023/09/25 06:14:23;;;;;;;5.57;2.50;;;;;;;13.04;100.00;102057.59;5027829;28;20044;-68
2023/09/25 06:16:50;;;;;;;6.38;3.08;;;;;;;13.10;100.00;102055.63;5033110;28;20476;-67
2023/09/25 06:19:15;;;;;;;5.93;2.90;;;;;;;13.16;100.00;102056.41;5046904;28;20044;-67
2023/09/25 06:21:41;;;;;;;6.63;3.17;;;;;;;13.22;100.00;102059.75;5047086;28;20033;-66
2023/09/25 06:24:09;;;;;;;3.38;2.53;;;;;;;13.24;100.00;102062.38;5046976;28;20056;-66
2023/09/25 06:26:35;;;;;;;9.45;2.85;;;;;;;13.24;100.00;102062.38;5030248;28;20021;-68
2023/09/25 06:29:01;;;;;;;4.32;2.67;;;;;;;13.28;100.00;102064.06;5047108;28;20054;-66
2023/09/25 06:31:26;;;;;;;3.42;2.60;;;;;;;13.31;100.00;102063.09;5046572;28;20021;-66
2023/09/25 06:33:53;;;;;;;5.72;2.63;;;;;;;13.41;100.00;102064.59;5029033;28;20052;-68
2023/09/25 06:36:18;;;;;;;5.70;3.05;;;;;;;13.37;100.00;102063.78;5047278;28;20025;-67
2023/09/25 06:38:44;;;;;;;8.23;2.97;;;;;;;13.48;100.00;102073.22;5046403;28;20025;-66
2023/09/25 06:41:13;;;;;;;3.45;2.45;;;;;;;13.56;100.00;102073.94;5047887;28;20080;-64
2023/09/25 06:43:38;;;;;;;5.97;2.85;;;;;;;13.63;100.00;102070.22;5051137;28;20033;-66
2023/09/25 06:46:04;;;;;;;6.60;2.50;;;;;;;13.66;100.00;102073.69;5066588;28;20021;-66
2023/09/25 06:48:32;;;;;;;3.17;2.05;;;;;;;13.64;100.00;102084.34;5064081;28;20029;-65
2023/09/25 06:50:57;;;;;;;4.15;2.50;;;;;;;13.75;100.00;102084.00;5046747;28;20028;-68
2023/09/25 06:53:23;;;;;;;6.45;2.33;;;;;;;13.75;100.00;102089.31;5050477;28;20032;-65
2023/09/25 06:55:48;;;;;;;5.07;2.40;;;;;;;13.85;100.00;102088.16;5066051;28;20020;-67
2023/09/25 06:58:13;;;;;;;6.72;2.60;;;;;;;13.93;100.00;102087.94;5065893;28;20077;-68
2023/09/25 07:00:39;;;;;;;4.30;2.42;;;;;;;14.01;100.00;102090.38;5066614;28;20056;-65
2023/09/25 07:03:04;;;;;;;6.55;2.72;;;;;;;14.07;100.00;102082.25;5066669;28;20152;-66
2023/09/25 07:05:30;;;;;;;6.75;2.70;;;;;;;14.10;100.00;102094.53;5047478;28;20391;-66
2023/09/25 07:07:56;;;;;;;7.75;2.63;;;;;;;14.21;100.00;102096.91;5045728;28;20144;-66
2023/09/25 07:10:22;;;;;;;5.65;2.60;;;;;;;14.26;100.00;102087.00;5045932;28;20167;-70
2023/09/25 07:12:47;;;;;;;7.15;2.42;;;;;;;14.34;100.00;102089.44;5046176;28;20029;-66
2023/09/25 07:15:13;;;;;;;8.35;3.00;;;;;;;14.34;100.00;102079.72;5046527;28;20036;-67
2023/09/25 07:17:38;;;;;;;6.90;2.65;;;;;;;14.45;100.00;102083.81;5045658;28;20021;-67
2023/09/25 07:20:05;;;;;;;6.60;2.70;;;;;;;14.40;100.00;102082.19;5044872;28;20083;-67
2023/09/25 07:22:31;;;;;;;4.00;2.22;;;;;;;14.37;100.00;102087.56;5045883;28;20612;-67
2023/09/25 07:24:57;;;;;;;8.43;2.88;;;;;;;14.42;100.00;102084.75;5045777;28;20044;-67
2023/09/25 07:27:22;;;;;;;6.95;2.33;;;;;;;14.57;100.00;102082.56;5046001;28;20025;-65
2023/09/25 07:29:48;;;;;;;6.53;3.10;;;;;;;14.48;100.00;102083.72;5045036;28;20455;-66
2023/09/25 07:32:13;;;;;;;6.85;2.55;;;;;;;14.60;100.00;102078.03;5045072;28;20028;-65
2023/09/25 07:34:40;;;;;;;6.88;2.95;;;;;;;14.59;100.00;102078.94;5045461;28;20535;-66
2023/09/25 07:37:05;;;;;;;5.45;2.50;;;;;;;14.72;100.00;102082.06;5046181;28;20108;-64
2023/09/25 07:39:33;;;;;;;3.60;2.47;;;;;;;14.75;100.00;102083.78;5045335;28;20031;-67
2023/09/25 07:41:58;;;;;;;4.10;2.60;;;;;;;14.76;100.00;102082.88;5046206;28;20115;-68
2023/09/25 07:44:26;;;;;;;5.55;2.40;;;;;;;14.82;100.00;102074.75;5045901;28;20455;-68
2023/09/25 07:46:53;;;;;;;6.32;2.55;;;;;;;14.97;100.00;102072.50;5063779;28;20486;-69
2023/09/25 07:49:19;;;;;;;4.82;2.55;;;;;;;14.99;100.00;102058.25;5066073;28;20110;-67
2023/09/25 07:51:44;;;;;;;3.58;2.53;;;;;;;15.04;100.00;102063.41;5064523;28;20431;-66
2023/09/25 07:54:10;;;;;;;8.20;2.58;;;;;;;15.14;100.00;102067.50;5065659;28;20028;-69
2023/09/25 07:56:36;;;;;;;6.68;2.40;;;;;;;15.14;100.00;102064.84;5058456;28;20035;-69
2023/09/25 07:59:02;;;;;;;4.15;2.45;;;;;;;15.33;100.00;102066.00;5065918;28;20025;-67
2023/09/25 08:01:29;;;;;;;4.05;2.70;;;;;;;15.52;100.00;102066.22;5053065;28;20487;-68
2023/09/25 08:03:54;;;;;;;5.68;2.63;;;;;;;15.58;100.00;102065.13;5045194;28;20029;-69
2023/09/25 08:06:24;;;;;;;5.25;2.25;;;;;;;15.78;100.00;102065.28;5045105;28;20027;-67
2023/09/25 08:08:50;;;;;;;6.00;2.38;;;;;;;15.86;100.00;102070.31;5045460;28;20040;-67
2023/09/25 08:11:17;;;;;;;5.63;2.35;;;;;;;16.15;100.00;102065.75;5045307;28;20067;-70
2023/09/25 08:13:42;;;;;;;4.13;2.50;;;;;;;16.13;100.00;102067.59;5046764;28;20371;-68
2023/09/25 08:16:08;;;;;;;4.53;2.58;;;;;;;16.41;100.00;102065.69;5026080;28;20024;-69
2023/09/25 08:18:33;;;;;;;6.25;2.47;;;;;;;16.57;100.00;102060.63;5044857;28;20029;-66
2023/09/25 08:20:59;;;;;;;5.47;2.35;;;;;;;16.53;100.00;102065.19;5045043;28;20025;-68
2023/09/25 08:23:25;;;;;;;6.20;2.53;;;;;;;16.81;100.00;102071.19;5046631;28;20048;-70
2023/09/25 08:25:50;;;;;;;6.00;2.15;;;;;;;16.89;100.00;102058.44;5047212;28;20032;-67
2023/09/25 08:28:15;;;;;;;4.35;2.25;;;;;;;16.98;100.00;102072.31;5046568;28;20029;-69
2023/09/25 08:30:41;;;;;;;4.65;2.58;;;;;;;16.85;98.11;102080.78;5045368;28;20375;-67
2023/09/25 08:33:07;;;;;;;5.75;2.80;;;;;;;16.82;99.94;102086.22;5053899;28;20029;-68
2023/09/25 08:35:32;;;;;;;4.78;2.30;;;;;;;16.83;100.00;102080.00;5065888;28;20052;-66
2023/09/25 08:37:57;;;;;;;7.47;2.20;;;;;;;16.86;100.00;102085.16;5064344;28;20043;-66
2023/09/25 08:40:23;;;;;;;4.95;2.40;;;;;;;16.89;100.00;102097.50;5064992;28;20063;-68
2023/09/25 08:42:51;;;;;;;7.05;2.25;;;;;;;16.93;100.00;102094.66;5046478;28;20036;-67
2023/09/25 08:45:18;;;;;;;3.50;2.45;;;;;;;16.91;100.00;102100.94;5068169;28;20081;-65
2023/09/25 08:47:45;;;;;;;5.72;2.80;;;;;;;16.82;100.00;102104.84;5068202;28;20037;-67
2023/09/25 08:50:10;;;;;;;7.60;2.65;;;;;;;16.87;100.00;102099.34;5069124;28;20021;-67
2023/09/25 08:52:36;;;;;;;6.38;2.58;;;;;;;16.98;100.00;102099.78;5068483;28;20481;-67
2023/09/25 08:55:02;;;;;;;9.15;2.92;;;;;;;17.12;100.00;102109.91;5069093;28;20025;-67
2023/09/25 08:57:27;;;;;;;4.68;2.25;;;;;;;17.17;97.31;102112.38;5067847;28;20238;-68
2023/09/25 08:59:53;;;;;;;5.82;2.38;;;;;;;17.17;96.89;102102.59;5069221;28;20103;-66
2023/09/25 09:02:18;;;;;;;4.15;2.30;;;;;;;17.18;95.95;102085.69;5064899;28;20045;-67
2023/09/25 09:04:44;;;;;;;6.80;2.47;;;;;;;17.12;97.46;102093.03;5048969;28;20025;-66
2023/09/25 09:07:10;;;;;;;4.35;2.40;;;;;;;17.28;97.36;102088.81;5048392;28;20055;-68
2023/09/25 09:09:36;;;;;;;6.63;2.70;;;;;;;17.52;95.73;102102.00;5049279;28;20021;-68
2023/09/25 09:12:02;;;;;;;4.20;2.13;;;;;;;17.61;95.13;102106.06;5048124;28;20479;-68
2023/09/25 09:14:46;;;;;;;7.35;2.42;;;;;;;17.78;93.25;102102.66;5048605;28;20047;-67
2023/09/25 09:17:12;;;;;;;3.90;2.20;;;;;;;17.82;92.29;102108.72;5030568;28;20035;-67
2023/09/25 09:19:43;;;;;;;6.45;2.17;;;;;;;17.90;90.82;102101.25;5067728;28;20096;-66
2023/09/25 09:22:09;;;;;;;6.40;1.88;;;;;;;17.93;91.54;102101.13;5068330;28;20039;-67
2023/09/25 09:24:38;;;;;;;3.15;2.10;;;;;;;17.99;91.71;102105.31;5050788;28;20029;-66
2023/09/25 09:27:07;;;;;;;8.60;2.33;;;;;;;18.03;90.27;102111.38;5048025;28;20047;-68
2023/09/25 09:29:41;;;;;;;5.57;2.60;;;;;;;18.08;90.94;102105.81;5063214;28;20032;-67
2023/09/25 09:32:08;;;;;;;3.95;2.35;;;;;;;18.15;92.05;102108.16;5066895;28;20524;-67
2023/09/25 09:34:34;;;;;;;4.50;2.70;;;;;;;18.32;91.04;102109.19;5061211;28;20261;-69
2023/09/25 09:37:00;;;;;;;5.13;2.10;;;;;;;18.33;89.87;102102.06;5048083;28;20407;-68
2023/09/25 09:39:26;;;;;;;5.00;2.50;;;;;;;18.37;89.29;102107.19;5036368;28;20027;-69
2023/09/25 09:41:52;;;;;;;5.22;2.30;;;;;;;18.35;91.35;102106.38;5067949;28;20032;-67
2023/09/25 09:44:19;;;;;;;5.68;2.55;;;;;;;18.53;90.28;102111.78;5063780;28;20383;-67
2023/09/25 09:46:46;;;;;;;5.72;2.22;;;;;;;18.67;89.17;102109.28;5067088;28;20637;-69
2023/09/25 09:49:13;;;;;;;6.38;2.60;;;;;;;18.76;88.15;102105.34;5058077;28;20024;-68
2023/09/25 09:51:40;;;;;;;5.75;2.50;;;;;;;18.93;88.59;102112.50;5048316;28;20486;-68
2023/09/25 09:54:06;;;;;;;6.05;3.08;;;;;;;19.02;86.88;102105.00;5049230;28;20029;-65
2023/09/25 09:56:33;;;;;;;5.43;2.45;;;;;;;18.93;89.01;102108.97;5030350;28;20048;-68
2023/09/25 09:58:58;;;;;;;20.80;2.90;;;;;;;19.02;88.54;102102.34;5033758;28;20059;-68
2023/09/25 10:01:24;;;;;;;4.35;2.45;;;;;;;19.00;86.12;102104.19;5067301;28;20540;-70
2023/09/25 10:03:50;;;;;;;4.00;2.40;;;;;;;19.08;85.43;102110.03;5048879;28;20437;-69
2023/09/25 10:06:15;;;;;;;5.30;2.63;;;;;;;19.16;85.06;102107.88;5033723;28;20063;-67
2023/09/25 10:09:10;;;;;;;8.98;2.60;;;;;;;19.16;86.93;102110.53;5067219;28;20052;-67
2023/09/25 10:11:35;;;;;;;6.97;2.40;;;;;;;19.32;85.56;102109.75;5067391;28;20072;-67
2023/09/25 10:14:05;;;;;;;5.07;2.40;;;;;;;19.52;84.08;102115.88;5048181;28;20463;-66
2023/09/25 10:17:06;;;;;;;6.85;2.60;;;;;;;19.67;83.20;102115.09;5067393;28;20020;-67
2023/09/25 10:19:37;;;;;;;2.58;2.28;;;;;;;19.77;83.54;102117.25;5066785;28;20048;-66
2023/09/25 10:22:09;;;;;;;4.00;2.58;;;;;;;19.82;83.03;102120.56;5067603;28;20259;-68
2023/09/25 10:24:34;;;;;;;7.25;2.55;;;;;;;19.89;83.06;102108.59;5060497;28;20120;-65
2023/09/25 10:27:00;;;;;;;12.25;2.40;;;;;;;19.87;83.13;102105.13;5027582;28;20183;-67
2023/09/25 10:29:27;;;;;;;5.45;2.53;;;;;;;19.88;84.64;102108.69;5028033;28;20025;-66
2023/09/25 10:31:52;;;;;;;6.57;2.55;;;;;;;20.08;82.43;102104.97;5046892;28;20458;-67
2023/09/25 10:34:17;;;;;;;3.78;2.80;;;;;;;20.13;83.07;102110.91;5047185;28;20052;-68
2023/09/25 10:36:45;;;;;;;5.55;2.63;;;;;;;20.31;81.21;102116.22;5066608;28;20051;-65
2023/09/25 10:39:14;;;;;;;9.57;2.88;;;;;;;20.28;79.51;102103.88;5067329;28;20032;-68
2023/09/25 10:41:41;;;;;;;6.03;2.50;;;;;;;20.42;80.41;102108.47;5049580;28;20048;-69
2023/09/25 10:44:07;;;;;;;6.85;2.38;;;;;;;20.53;79.89;102104.31;5028256;28;20040;-69
2023/09/25 10:46:32;;;;;;;7.47;2.33;;;;;;;20.62;79.30;102103.78;5061823;28;21275;-67
2023/09/25 10:48:58;;;;;;;5.80;2.38;;;;;;;20.74;79.95;102098.69;5065818;28;20040;-69
2023/09/25 10:51:23;;;;;;;7.30;2.58;;;;;;;20.67;82.42;102107.06;5065868;28;20047;-67
2023/09/25 10:53:49;;;;;;;5.82;2.45;;;;;;;20.89;80.59;102110.34;5066412;28;20025;-68
2023/09/25 10:56:15;;;;;;;6.50;2.75;;;;;;;21.17;80.65;102117.66;5040117;28;20033;-68
2023/09/25 10:58:41;;;;;;;7.75;2.95;;;;;;;21.60;80.29;102124.06;5034404;28;20013;-69
2023/09/25 11:01:06;;;;;;;5.20;2.78;;;;;;;21.77;80.92;102124.91;5021807;28;20448;-68
2023/09/25 11:03:31;;;;;;;6.38;2.50;;;;;;;22.16;74.34;102123.38;5038292;28;20052;-66
2023/09/25 11:05:58;;;;;;;4.15;2.33;;;;;;;22.37;72.99;102131.03;5042303;28;20197;-64
2023/09/25 11:08:25;;;;;;;8.13;2.75;;;;;;;22.86;67.13;102123.44;5016013;28;20040;-65
2023/09/25 11:10:50;;;;;;;6.35;3.05;;;;;;;22.88;67.94;102118.84;5021557;28;20049;-65
2023/09/25 11:13:16;;;;;;;7.28;2.50;;;;;;;23.15;68.17;102119.75;5037688;28;20066;-67
2023/09/25 11:15:41;;;;;;;6.00;2.55;;;;;;;23.18;70.54;102120.41;5034374;28;20024;-66